createdAt,value
2019-04-16T00:00:30.982Z,4.61
2019-04-16T00:02:59.945Z,4.46
2019-04-16T00:05:30.117Z,4.62
2019-04-16T00:08:26.494Z,4.70
2019-04-16T00:10:41.323Z,4.42
2019-04-16T00:13:17.548Z,4.35
2019-04-16T00:15:46.044Z,4.30
2019-04-16T00:18:18.469Z,4.07
2019-04-16T00:20:55.228Z,4.18
2019-04-16T00:23:34.457Z,3.79
2019-04-16T00:26:02.920Z,3.69
2019-04-16T00:28:31.492Z,3.81
2019-04-16T00:30:59.966Z,3.60
2019-04-16T00:33:28.441Z,3.76
2019-04-16T00:35:56.985Z,3.78
2019-04-16T00:38:25.476Z,3.93
2019-04-16T00:40:53.956Z,3.73
2019-04-16T00:43:22.457Z,3.58
2019-04-16T00:45:50.992Z,3.74
2019-04-16T00:48:19.499Z,3.59
2019-04-16T00:50:48.012Z,3.59
2019-04-16T00:53:16.531Z,3.92
2019-04-16T00:55:45.805Z,3.85
2019-04-16T00:58:14.482Z,3.84
2019-04-16T01:00:42.993Z,4.06
2019-04-16T01:03:13.136Z,4.04
2019-04-16T01:05:41.634Z,4.13
2019-04-16T01:08:10.122Z,3.90
2019-04-16T01:10:38.587Z,3.79
2019-04-16T01:13:07.102Z,3.48
2019-04-16T01:15:35.556Z,3.38
2019-04-16T01:18:08.098Z,3.52
2019-04-16T01:20:35.084Z,4.01
2019-04-16T01:23:03.620Z,3.45
2019-04-16T01:25:32.121Z,4.05
2019-04-16T01:28:02.221Z,4.22
2019-04-16T01:30:36.324Z,3.81
2019-04-16T01:33:07.134Z,3.68
2019-04-16T01:35:39.940Z,4.09
2019-04-16T01:38:27.829Z,3.83
2019-04-16T01:41:06.063Z,3.49
2019-04-16T01:43:34.607Z,3.19
2019-04-16T01:46:03.107Z,2.99
2019-04-16T01:48:31.580Z,3.07
2019-04-16T01:51:00.078Z,2.85
2019-04-16T01:53:28.543Z,2.89
2019-04-16T01:55:57.752Z,2.75
2019-04-16T01:58:26.286Z,2.66
2019-04-16T02:00:54.844Z,2.60
2019-04-16T02:03:23.413Z,2.60
2019-04-16T02:05:54.559Z,2.99
2019-04-16T02:08:22.257Z,2.76
2019-04-16T02:10:50.792Z,2.96
2019-04-16T02:13:19.363Z,2.99
2019-04-16T02:15:50.614Z,3.08
2019-04-16T02:18:18.104Z,3.10
2019-04-16T02:20:46.571Z,2.90
2019-04-16T02:23:16.739Z,2.84
2019-04-16T02:25:45.497Z,3.09
2019-04-16T02:28:14.014Z,2.70
2019-04-16T02:30:42.573Z,2.99
2019-04-16T02:33:11.174Z,2.61
2019-04-16T02:35:39.621Z,2.63
2019-04-16T02:38:12.271Z,2.44
2019-04-16T02:40:38.789Z,2.54
2019-04-16T02:43:08.167Z,2.42
2019-04-16T02:45:37.002Z,2.38
2019-04-16T02:48:05.802Z,2.40
2019-04-16T02:50:42.020Z,2.35
2019-04-16T02:53:28.081Z,2.53
2019-04-16T02:55:58.295Z,2.39
2019-04-16T02:58:33.981Z,2.55
2019-04-16T03:01:00.411Z,2.57
2019-04-16T03:03:30.521Z,2.50
2019-04-16T03:06:01.043Z,2.35
2019-04-16T03:08:29.272Z,2.32
2019-04-16T03:10:57.946Z,2.50
2019-04-16T03:13:26.955Z,2.25
2019-04-16T03:15:57.251Z,2.29
2019-04-16T03:18:27.505Z,2.49
2019-04-16T03:20:56.648Z,2.31
2019-04-16T03:23:25.267Z,2.33
2019-04-16T03:25:53.733Z,2.12
2019-04-16T03:28:23.582Z,2.30
2019-04-16T03:30:52.515Z,2.19
2019-04-16T03:33:20.958Z,2.64
2019-04-16T03:35:49.525Z,2.07
2019-04-16T03:38:17.995Z,2.60
2019-04-16T03:40:46.483Z,2.64
2019-04-16T03:43:14.996Z,2.67
2019-04-16T03:45:43.463Z,2.41
2019-04-16T03:48:11.964Z,2.74
2019-04-16T03:50:40.458Z,2.61
2019-04-16T03:53:08.947Z,2.40
2019-04-16T03:55:37.415Z,2.64
2019-04-16T03:58:07.190Z,2.64
2019-04-16T04:00:36.296Z,2.25
2019-04-16T04:03:05.023Z,2.10
2019-04-16T04:05:34.898Z,2.17
2019-04-16T04:08:04.921Z,1.98
2019-04-16T04:10:36.800Z,2.08
2019-04-16T04:13:05.129Z,1.91
2019-04-16T04:15:33.825Z,2.32
2019-04-16T04:18:02.273Z,2.10
2019-04-16T04:20:31.183Z,2.40
2019-04-16T04:22:59.674Z,2.13
2019-04-16T04:25:28.264Z,2.09
2019-04-16T04:27:56.763Z,2.30
2019-04-16T04:30:28.703Z,2.50
2019-04-16T04:32:56.154Z,2.03
2019-04-16T04:35:24.626Z,1.90
2019-04-16T04:37:53.094Z,1.86
2019-04-16T04:40:21.574Z,1.93
2019-04-16T04:42:50.220Z,2.05
2019-04-16T04:45:18.716Z,2.11
2019-04-16T04:47:51.003Z,2.15
2019-04-16T04:50:17.571Z,2.35
2019-04-16T04:52:46.873Z,2.24
2019-04-16T04:55:15.643Z,2.11
2019-04-16T04:57:44.196Z,2.75
2019-04-16T05:00:13.803Z,2.71
2019-04-16T05:02:43.645Z,3.14
2019-04-16T05:05:16.738Z,3.33
2019-04-16T05:07:45.233Z,2.95
2019-04-16T05:10:13.870Z,3.45
2019-04-16T05:12:42.873Z,3.03
2019-04-16T05:15:11.795Z,3.16
2019-04-16T05:17:40.268Z,3.35
2019-04-16T05:20:09.087Z,3.48
2019-04-16T05:22:37.564Z,4.03
2019-04-16T05:25:06.663Z,4.20
2019-04-16T05:27:40.249Z,5.05
2019-04-16T05:30:07.115Z,4.61
2019-04-16T05:32:35.632Z,4.85
2019-04-16T05:35:10.273Z,5.27
2019-04-16T05:37:37.782Z,5.47
2019-04-16T05:40:08.547Z,5.26
2019-04-16T05:42:37.011Z,5.14
2019-04-16T05:45:07.363Z,5.41
2019-04-16T05:47:36.007Z,5.72
2019-04-16T05:50:05.615Z,4.38
2019-04-16T05:52:35.737Z,4.82
2019-04-16T05:55:23.352Z,4.89
2019-04-16T05:57:57.966Z,5.68
2019-04-16T06:00:33.847Z,6.27
2019-04-16T06:03:02.348Z,5.67
2019-04-16T06:05:30.935Z,5.11
2019-04-16T06:08:10.318Z,5.19
2019-04-16T06:10:39.252Z,5.58
2019-04-16T06:13:24.661Z,5.89
2019-04-16T06:16:00.883Z,5.84
2019-04-16T06:18:43.071Z,5.75
2019-04-16T06:21:29.676Z,6.14
2019-04-16T06:24:16.259Z,6.82
2019-04-16T06:27:02.935Z,6.67
2019-04-16T06:29:38.798Z,5.86
2019-04-16T06:32:14.861Z,5.68
2019-04-16T06:34:57.071Z,5.96
2019-04-16T06:37:45.775Z,6.29
2019-04-16T06:40:32.877Z,6.14
2019-04-16T06:43:05.622Z,6.78
2019-04-16T06:45:37.049Z,7.40
2019-04-16T06:48:12.854Z,7.26
2019-04-16T06:50:42.274Z,6.84
2019-04-16T06:53:12.460Z,7.12
2019-04-16T06:55:58.492Z,7.81
2019-04-16T06:58:50.861Z,8.16
2019-04-16T07:01:29.063Z,8.16
2019-04-16T07:03:59.961Z,8.16
2019-04-16T07:06:39.371Z,8.56
2019-04-16T07:09:25.805Z,7.90
2019-04-16T07:11:54.946Z,8.51
2019-04-16T07:14:23.644Z,8.07
2019-04-16T07:16:52.100Z,7.60
2019-04-16T07:19:20.586Z,8.21
2019-04-16T07:21:49.965Z,8.33
2019-04-16T07:24:22.152Z,8.79
2019-04-16T07:26:49.024Z,8.74
2019-04-16T07:29:31.562Z,8.98
2019-04-16T07:32:03.093Z,9.28
2019-04-16T07:34:48.496Z,9.02
2019-04-16T07:37:24.314Z,8.91
2019-04-16T07:40:10.710Z,9.59
2019-04-16T07:42:51.856Z,9.91
2019-04-16T07:45:18.123Z,8.75
2019-04-16T07:47:57.437Z,9.64
2019-04-16T07:50:44.815Z,10.10
2019-04-16T07:53:31.107Z,10.02
2019-04-16T07:56:04.222Z,10.32
2019-04-16T07:58:32.757Z,10.07
2019-04-16T08:01:01.624Z,9.13
2019-04-16T08:03:30.168Z,9.53
2019-04-16T08:05:58.722Z,9.83
2019-04-16T08:08:27.194Z,10.34
2019-04-16T08:10:55.998Z,10.19
2019-04-16T08:13:26.925Z,10.44
2019-04-16T08:15:57.044Z,11.22
2019-04-16T08:18:27.326Z,11.38
2019-04-16T08:21:01.668Z,11.88
2019-04-16T08:23:27.721Z,11.56
2019-04-16T08:26:03.529Z,11.23
2019-04-16T08:28:28.151Z,11.84
2019-04-16T08:30:56.637Z,12.32
2019-04-16T08:33:28.223Z,12.35
2019-04-16T08:35:55.337Z,12.23
2019-04-16T08:38:26.043Z,12.23
2019-04-16T08:40:54.102Z,12.32
2019-04-16T08:43:22.653Z,12.10
2019-04-16T08:45:51.194Z,12.10
2019-04-16T08:48:19.696Z,13.19
2019-04-16T08:50:49.500Z,12.59
2019-04-16T08:53:18.029Z,12.35
2019-04-16T08:55:46.530Z,12.08
2019-04-16T08:58:15.010Z,12.96
2019-04-16T09:00:46.675Z,13.47
2019-04-16T09:03:15.603Z,13.02
2019-04-16T09:05:44.236Z,13.75
2019-04-16T09:08:14.339Z,13.27
2019-04-16T09:10:44.610Z,13.70
2019-04-16T09:13:17.671Z,12.86
2019-04-16T09:15:46.244Z,12.48
2019-04-16T09:18:25.366Z,13.44
2019-04-16T09:20:53.941Z,13.48
2019-04-16T09:23:22.856Z,14.81
2019-04-16T09:26:11.275Z,15.62
2019-04-16T09:28:31.058Z,14.91
2019-04-16T09:31:12.749Z,14.67
2019-04-16T09:33:42.857Z,15.79
2019-04-16T09:36:27.977Z,15.33
2019-04-16T09:38:58.091Z,14.77
2019-04-16T09:41:31.221Z,13.79
2019-04-16T09:44:01.066Z,13.65
2019-04-16T09:46:49.544Z,12.84
2019-04-16T09:49:00.339Z,14.85
2019-04-16T09:51:28.894Z,16.01
2019-04-16T09:53:57.360Z,16.19
2019-04-16T09:56:32.142Z,15.09
2019-04-16T09:59:07.159Z,13.93
2019-04-16T10:01:37.486Z,14.02
2019-04-16T10:04:07.626Z,14.50
2019-04-16T10:06:36.100Z,14.05
2019-04-16T10:09:06.860Z,15.26
2019-04-16T10:11:35.848Z,15.49
2019-04-16T10:14:05.607Z,15.77
2019-04-16T10:16:34.189Z,15.39
2019-04-16T10:19:07.638Z,15.47
2019-04-16T10:21:32.940Z,15.04
2019-04-16T10:24:15.101Z,14.91
2019-04-16T10:26:45.276Z,16.33
2019-04-16T10:29:15.462Z,16.45
2019-04-16T10:31:45.011Z,14.79
2019-04-16T10:34:13.493Z,14.49
2019-04-16T10:36:42.013Z,14.87
2019-04-16T10:39:21.157Z,15.26
2019-04-16T10:42:02.858Z,16.11
2019-04-16T10:44:37.951Z,17.80
2019-04-16T10:47:12.554Z,15.79
2019-04-16T10:49:42.912Z,16.52
2019-04-16T10:52:29.459Z,17.89
2019-04-16T10:55:02.305Z,15.71
2019-04-16T10:57:32.447Z,16.02
2019-04-16T11:00:14.679Z,16.68
2019-04-16T11:02:50.565Z,16.34
2019-04-16T11:05:35.764Z,15.74
2019-04-16T11:08:07.547Z,16.38
2019-04-16T11:10:35.207Z,16.43
2019-04-16T11:13:05.361Z,16.68
2019-04-16T11:15:33.846Z,17.37
2019-04-16T11:18:02.308Z,17.95
2019-04-16T11:20:30.900Z,18.95
2019-04-16T11:22:59.445Z,19.67
2019-04-16T11:25:29.021Z,19.84
2019-04-16T11:27:57.497Z,16.21
2019-04-16T11:30:31.291Z,15.98
2019-04-16T11:33:00.059Z,15.30
2019-04-16T11:35:28.539Z,16.02
2019-04-16T11:37:57.055Z,16.81
2019-04-16T11:40:25.674Z,16.32
2019-04-16T11:42:54.261Z,16.18
2019-04-16T11:45:22.864Z,16.94
2019-04-16T11:47:51.359Z,16.64
2019-04-16T11:50:19.911Z,16.47
2019-04-16T11:52:48.381Z,17.17
2019-04-16T11:55:16.976Z,15.52
2019-04-16T11:57:45.497Z,17.08
2019-04-16T12:00:16.176Z,18.62
2019-04-16T12:03:01.411Z,18.27
2019-04-16T12:05:37.240Z,17.20
2019-04-16T12:08:19.633Z,17.02
2019-04-16T12:11:02.014Z,17.42
2019-04-16T12:13:35.045Z,15.97
2019-04-16T12:16:08.372Z,17.92
2019-04-16T12:18:53.465Z,18.62
2019-04-16T12:21:32.599Z,16.82
2019-04-16T12:24:18.648Z,15.80
2019-04-16T12:26:48.927Z,15.66
2019-04-16T12:29:30.855Z,15.93
2019-04-16T12:32:03.607Z,16.99
2019-04-16T12:34:32.054Z,16.83
2019-04-16T12:37:20.263Z,15.29
2019-04-16T12:40:06.629Z,16.48
2019-04-16T12:42:41.206Z,16.44
2019-04-16T12:45:18.039Z,15.66
2019-04-16T12:47:48.181Z,16.47
2019-04-16T12:50:24.623Z,14.66
2019-04-16T12:53:03.407Z,15.78
2019-04-16T12:55:42.902Z,18.19
2019-04-16T12:58:20.176Z,18.70
2019-04-16T13:01:06.516Z,16.82
2019-04-16T13:03:36.656Z,15.57
2019-04-16T13:06:06.908Z,15.81
2019-04-16T13:08:37.084Z,17.15
2019-04-16T13:11:10.015Z,15.85
2019-04-16T13:13:42.839Z,16.72
2019-04-16T13:16:12.951Z,16.36
2019-04-16T13:18:58.948Z,17.02
2019-04-16T13:21:29.125Z,15.03
2019-04-16T13:23:59.264Z,16.09
2019-04-16T13:26:29.378Z,16.93
2019-04-16T13:28:59.772Z,18.38
2019-04-16T13:31:28.257Z,16.44
2019-04-16T13:33:56.762Z,17.38
2019-04-16T13:36:27.878Z,17.10
2019-04-16T13:38:57.156Z,17.04
2019-04-16T13:41:26.997Z,16.58
2019-04-16T13:44:09.269Z,16.37
2019-04-16T13:46:36.771Z,16.65
2019-04-16T13:49:10.453Z,18.31
2019-04-16T13:51:39.020Z,16.50
2019-04-16T13:54:09.185Z,16.15
2019-04-16T13:56:51.505Z,16.49
2019-04-16T13:59:30.996Z,15.83
2019-04-16T14:02:04.704Z,16.76
2019-04-16T14:04:36.730Z,17.29
2019-04-16T14:07:03.812Z,16.30
2019-04-16T14:09:32.318Z,16.41
2019-04-16T14:12:01.048Z,16.84
2019-04-16T14:14:29.546Z,16.10
2019-04-16T14:17:08.252Z,16.41
2019-04-16T14:19:28.338Z,16.06
2019-04-16T14:21:56.847Z,15.93
2019-04-16T14:24:25.384Z,15.34
2019-04-16T14:26:53.877Z,16.19
2019-04-16T14:29:24.906Z,17.89
2019-04-16T14:31:52.428Z,16.57
2019-04-16T14:34:34.383Z,17.02
2019-04-16T14:37:03.067Z,16.28
2019-04-16T14:39:35.987Z,15.79
2019-04-16T14:42:04.942Z,15.48
2019-04-16T14:44:43.618Z,15.11
2019-04-16T14:47:12.216Z,14.85
2019-04-16T14:49:40.771Z,15.10
2019-04-16T14:52:09.334Z,15.81
2019-04-16T14:54:51.350Z,14.99
2019-04-16T14:57:20.037Z,14.75
2019-04-16T15:00:06.755Z,14.52
2019-04-16T15:02:48.891Z,14.67
2019-04-16T15:05:22.238Z,15.66
2019-04-16T15:07:58.615Z,15.63
2019-04-16T15:10:31.937Z,15.30
2019-04-16T15:13:17.235Z,14.61
2019-04-16T15:15:47.972Z,14.71
2019-04-16T15:18:18.106Z,14.90
2019-04-16T15:21:03.842Z,15.22
2019-04-16T15:23:46.820Z,14.69
2019-04-16T15:26:17.045Z,14.53
2019-04-16T15:28:49.884Z,14.50
2019-04-16T15:31:36.418Z,15.21
2019-04-16T15:34:11.231Z,14.73
2019-04-16T15:36:41.450Z,15.19
2019-04-16T15:39:11.655Z,14.76
2019-04-16T15:41:47.737Z,14.65
2019-04-16T15:44:23.580Z,15.08
2019-04-16T15:46:52.532Z,14.86
2019-04-16T15:49:39.115Z,14.56
2019-04-16T15:52:25.866Z,14.62
2019-04-16T15:55:08.052Z,14.92
2019-04-16T15:57:41.124Z,14.84
2019-04-16T16:00:14.733Z,15.00
2019-04-16T16:02:57.164Z,14.85
2019-04-16T16:05:33.457Z,14.25
2019-04-16T16:08:20.142Z,14.02
2019-04-16T16:10:52.979Z,14.57
2019-04-16T16:13:22.852Z,13.50
2019-04-16T16:15:51.720Z,13.59
2019-04-16T16:18:20.482Z,13.68
2019-04-16T16:20:49.003Z,13.87
2019-04-16T16:23:17.558Z,13.54
2019-04-16T16:25:46.077Z,13.98
2019-04-16T16:28:14.599Z,13.96
2019-04-16T16:30:43.243Z,14.18
2019-04-16T16:33:11.799Z,14.09
2019-04-16T16:35:40.301Z,13.74
2019-04-16T16:38:11.134Z,13.61
2019-04-16T16:40:39.073Z,13.78
2019-04-16T16:43:08.735Z,13.58
2019-04-16T16:45:54.512Z,13.36
2019-04-16T16:48:24.314Z,13.54
2019-04-16T16:50:52.810Z,13.66
2019-04-16T16:53:31.922Z,14.31
2019-04-16T16:56:02.346Z,13.26
2019-04-16T16:58:35.394Z,12.90
2019-04-16T17:01:13.902Z,12.97
2019-04-16T17:03:43.570Z,13.31
2019-04-16T17:06:13.880Z,13.89
2019-04-16T17:08:42.424Z,14.33
2019-04-16T17:11:16.605Z,14.49
2019-04-16T17:13:41.185Z,14.13
2019-04-16T17:16:13.303Z,13.69
2019-04-16T17:18:39.972Z,13.97
2019-04-16T17:21:08.486Z,14.60
2019-04-16T17:23:36.984Z,14.84
2019-04-16T17:26:05.525Z,14.62
2019-04-16T17:28:34.020Z,13.89
2019-04-16T17:31:02.585Z,14.19
2019-04-16T17:33:31.126Z,14.02
2019-04-16T17:35:59.699Z,13.62
2019-04-16T17:38:28.296Z,13.83
2019-04-16T17:40:59.867Z,13.24
2019-04-16T17:43:33.102Z,13.64
2019-04-16T17:48:58.281Z,13.34
2019-04-16T17:51:28.417Z,13.61
2019-04-16T17:54:04.675Z,13.52
2019-04-16T17:56:43.444Z,13.43
2019-04-16T17:59:16.699Z,12.81
2019-04-16T18:02:02.767Z,12.84
2019-04-16T18:04:32.938Z,12.66
2019-04-16T18:07:06.067Z,12.51
2019-04-16T18:09:45.150Z,12.64
2019-04-16T18:12:19.806Z,12.93
2019-04-16T18:14:58.703Z,12.44
2019-04-16T18:17:47.319Z,12.44
2019-04-16T18:20:20.940Z,11.57
2019-04-16T18:23:00.077Z,11.24
2019-04-16T18:25:30.252Z,11.14
2019-04-16T18:28:05.415Z,11.22
2019-04-16T18:30:46.303Z,11.02
2019-04-16T18:33:22.498Z,11.12
2019-04-16T18:36:07.986Z,10.93
2019-04-16T18:39:03.209Z,11.01
2019-04-16T18:41:30.910Z,10.88
2019-04-16T18:44:09.816Z,11.35
2019-04-16T18:46:42.517Z,11.02
2019-04-16T18:49:14.400Z,11.01
2019-04-16T18:51:42.893Z,11.15
2019-04-16T18:54:11.407Z,11.15
2019-04-16T18:56:39.904Z,11.09
2019-04-16T18:59:08.568Z,11.25
2019-04-16T19:01:38.695Z,10.86
2019-04-16T19:04:07.221Z,11.14
2019-04-16T19:06:35.968Z,11.10
2019-04-16T19:09:06.700Z,11.15
2019-04-16T19:11:35.306Z,10.92
2019-04-16T19:14:03.949Z,10.85
2019-04-16T19:16:32.483Z,10.70
2019-04-16T19:19:01.024Z,10.74
2019-04-16T19:21:29.589Z,10.66
2019-04-16T19:24:02.851Z,10.64
2019-04-16T19:26:31.497Z,10.48
2019-04-16T19:29:00.086Z,11.20
2019-04-16T19:31:28.579Z,10.71
2019-04-16T19:33:57.107Z,11.14
2019-04-16T19:36:27.482Z,11.02
2019-04-16T19:38:55.953Z,11.59
2019-04-16T19:41:24.733Z,10.90
2019-04-16T19:43:53.744Z,11.06
2019-04-16T19:46:22.325Z,11.05
2019-04-16T19:48:51.157Z,10.90
2019-04-16T19:51:19.951Z,10.66
2019-04-16T19:53:48.671Z,10.96
2019-04-16T19:56:18.505Z,10.97
2019-04-16T19:58:48.143Z,10.10
2019-04-16T20:01:16.770Z,9.84
2019-04-16T20:03:47.989Z,10.12
2019-04-16T20:06:15.900Z,10.31
2019-04-16T20:08:44.436Z,10.19
2019-04-16T20:11:12.940Z,10.36
2019-04-16T20:13:41.476Z,10.85
2019-04-16T20:16:09.998Z,10.80
2019-04-16T20:18:50.310Z,10.64
2019-04-16T20:21:08.743Z,10.60
2019-04-16T20:23:37.303Z,10.09
2019-04-16T20:26:05.974Z,9.59
2019-04-16T20:28:34.531Z,9.82
2019-04-16T20:31:04.287Z,9.70
2019-04-16T20:33:33.342Z,9.67
2019-04-16T20:36:01.922Z,9.56
2019-04-16T20:38:30.392Z,8.90
2019-04-16T20:40:58.973Z,9.02
2019-04-16T20:43:27.441Z,8.91
2019-04-16T20:45:55.927Z,8.50
2019-04-16T20:48:24.396Z,8.80
2019-04-16T20:50:56.634Z,8.77
2019-04-16T20:53:23.100Z,8.55
2019-04-16T20:55:51.685Z,8.26
2019-04-16T20:58:20.158Z,8.36
2019-04-16T21:00:51.287Z,8.34
2019-04-16T21:03:22.555Z,8.17
2019-04-16T21:05:58.022Z,8.19
2019-04-16T21:08:24.450Z,8.33
2019-04-16T21:10:50.487Z,8.04
2019-04-16T21:13:18.999Z,8.31
2019-04-16T21:15:47.457Z,8.21
2019-04-16T21:18:15.929Z,8.36
2019-04-16T21:20:50.840Z,8.36
2019-04-16T21:23:16.242Z,8.05
2019-04-16T21:25:45.991Z,8.52
2019-04-16T21:28:16.585Z,8.67
2019-04-16T21:30:45.852Z,8.23
2019-04-16T21:33:31.137Z,7.98
2019-04-16T21:36:04.818Z,8.42
2019-04-16T21:38:42.232Z,8.01
2019-04-16T21:41:11.342Z,8.23
2019-04-16T21:43:40.415Z,8.23
2019-04-16T21:46:09.140Z,8.07
2019-04-16T21:48:37.629Z,7.54
2019-04-16T21:51:06.110Z,7.97
2019-04-16T21:53:34.591Z,8.29
2019-04-16T21:56:06.405Z,8.18
2019-04-16T21:58:33.342Z,7.84
2019-04-16T22:01:05.138Z,7.79
2019-04-16T22:03:35.547Z,7.88
2019-04-16T22:06:04.183Z,7.98
2019-04-16T22:08:32.595Z,7.80
2019-04-16T22:11:01.097Z,7.40
2019-04-16T22:13:29.565Z,7.71
2019-04-16T22:15:58.733Z,8.09
2019-04-16T22:18:27.408Z,8.41
2019-04-16T22:20:56.113Z,8.28
2019-04-16T22:23:24.534Z,8.42
2019-04-16T22:25:53.009Z,8.16
2019-04-16T22:28:21.507Z,7.85
2019-04-16T22:30:51.479Z,7.24
2019-04-16T22:33:20.303Z,7.56
2019-04-16T22:35:48.773Z,7.34
2019-04-16T22:38:17.263Z,7.21
2019-04-16T22:40:51.630Z,6.83
2019-04-16T22:43:39.585Z,7.12
2019-04-16T22:46:10.388Z,6.60
2019-04-16T22:48:40.544Z,6.46
2019-04-16T22:51:10.016Z,6.70
2019-04-16T22:53:39.208Z,6.47
2019-04-16T22:56:07.695Z,6.67
2019-04-16T22:58:48.806Z,6.77
2019-04-16T23:01:19.557Z,6.80
2019-04-16T23:03:49.744Z,6.93
2019-04-16T23:06:18.360Z,6.79
2019-04-16T23:08:46.827Z,6.86
2019-04-16T23:11:15.413Z,6.47
2019-04-16T23:13:43.876Z,6.59
2019-04-16T23:16:12.384Z,6.49
2019-04-16T23:18:40.875Z,6.66
2019-04-16T23:21:11.339Z,6.67
2019-04-16T23:23:39.541Z,6.33
2019-04-16T23:26:08.046Z,6.05
2019-04-16T23:28:36.560Z,6.26
2019-04-16T23:31:05.159Z,6.29
2019-04-16T23:33:33.644Z,6.28
2019-04-16T23:36:02.323Z,6.29
2019-04-16T23:38:31.573Z,6.04
2019-04-16T23:41:00.946Z,6.41
2019-04-16T23:43:33.849Z,6.24
2019-04-16T23:46:20.263Z,6.08
2019-04-16T23:48:53.374Z,6.09
2019-04-16T23:51:29.729Z,6.32
2019-04-16T23:53:59.880Z,6.10
2019-04-16T23:56:32.881Z,6.13
2019-04-16T23:59:05.742Z,5.87
